Time,TemperatureF,DewpointF,PressureIn,WindDirection,WindDirectionDegrees,WindSpeedMPH,WindSpeedGustMPH,Humidity,HourlyPrecipIn,Conditions,Clouds,dailyrainin,SoftwareType,DateUTC
2013-09-07 00:05:00,62.9,56.0,30.04,SSE,156,0.0,0.0,79,0.00,,,0.00,weatherlink.com 1.10,2013-09-07 04:05:00,
2013-09-07 00:21:00,63.3,56.0,30.05,East,100,0.0,0.0,78,0.00,,,0.00,weatherlink.com 1.10,2013-09-07 04:21:00,
2013-09-07 00:36:00,63.0,56.0,30.04,SSW,207,0.0,0.0,79,0.00,,,0.00,weatherlink.com 1.10,2013-09-07 04:36:00,
2013-09-07 00:51:00,62.5,56.0,30.04,SSW,206,0.0,0.0,80,0.00,,,0.00,weatherlink.com 1.10,2013-09-07 04:51:00,
2013-09-07 01:06:00,62.2,56.0,30.04,SW,217,0.0,1.0,80,0.00,,,0.00,weatherlink.com 1.10,2013-09-07 05:06:00,
2013-09-07 01:21:00,61.4,56.0,30.05,SW,217,0.0,0.0,81,0.00,,,0.00,weatherlink.com 1.10,2013-09-07 05:21:00,
2013-09-07 01:36:00,61.3,56.0,30.05,SSW,203,0.0,1.0,83,0.00,,,0.00,weatherlink.com 1.10,2013-09-07 05:36:00,
2013-09-07 01:51:00,63.2,56.0,30.04,SE,142,0.0,2.0,76,0.00,,,0.00,weatherlink.com 1.10,2013-09-07 05:51:00,
2013-09-07 02:06:00,65.0,56.0,30.04,ESE,117,3.0,4.0,72,0.00,,,0.00,weatherlink.com 1.10,2013-09-07 06:06:00,
2013-09-07 02:21:00,64.2,56.0,30.04,SSE,153,0.0,3.0,74,0.00,,,0.00,weatherlink.com 1.10,2013-09-07 06:21:00,
2013-09-07 02:36:00,63.3,56.0,30.03,SSE,166,0.0,3.0,76,0.00,,,0.00,weatherlink.com 1.10,2013-09-07 06:36:00,
2013-09-07 02:51:00,63.3,56.0,30.03,SSE,161,1.0,3.0,76,0.00,,,0.00,weatherlink.com 1.10,2013-09-07 06:51:00,
2013-09-07 03:06:00,63.7,56.0,30.03,SSE,148,1.0,2.0,75,0.00,,,0.00,weatherlink.com 1.10,2013-09-07 07:06:00,
2013-09-07 03:21:00,64.5,56.0,30.03,ESE,107,2.0,5.0,74,0.00,,,0.00,weatherlink.com 1.10,2013-09-07 07:21:00,
2013-09-07 03:36:00,64.0,56.0,30.03,SE,134,1.0,2.0,75,0.00,,,0.00,weatherlink.com 1.10,2013-09-07 07:36:00,
2013-09-07 03:51:00,63.8,56.0,30.03,ESE,120,1.0,3.0,75,0.00,,,0.00,weatherlink.com 1.10,2013-09-07 07:51:00,
2013-09-07 04:06:00,63.5,56.0,30.03,ESE,113,2.0,3.0,76,0.00,,,0.00,weatherlink.com 1.10,2013-09-07 08:06:00,
2013-09-07 04:21:00,63.2,56.0,30.03,SE,135,1.0,2.0,77,0.00,,,0.00,weatherlink.com 1.10,2013-09-07 08:21:00,
2013-09-07 04:36:00,63.0,56.0,30.03,SSE,155,1.0,5.0,78,0.00,,,0.00,weatherlink.com 1.10,2013-09-07 08:36:00,
2013-09-07 04:52:00,62.8,56.0,30.03,SE,142,1.0,3.0,79,0.00,,,0.00,weatherlink.com 1.10,2013-09-07 08:52:00,
2013-09-07 05:06:00,62.6,56.0,30.02,SE,126,0.0,3.0,80,0.00,,,0.00,weatherlink.com 1.10,2013-09-07 09:06:00,
2013-09-07 05:21:00,62.4,56.0,30.02,SE,143,1.0,3.0,80,0.00,,,0.00,weatherlink.com 1.10,2013-09-07 09:21:00,
2013-09-07 05:36:00,62.4,57.0,30.02,SE,141,1.0,3.0,81,0.00,,,0.00,weatherlink.com 1.10,2013-09-07 09:36:00,
2013-09-07 05:51:00,62.2,57.0,30.02,SSE,154,2.0,4.0,82,0.00,,,0.00,weatherlink.com 1.10,2013-09-07 09:51:00,
2013-09-07 06:06:00,62.6,57.0,30.02,SSE,147,2.0,3.0,81,0.00,,,0.00,weatherlink.com 1.10,2013-09-07 10:06:00,
2013-09-07 06:21:00,62.6,57.0,30.03,SE,145,1.0,3.0,82,0.00,,,0.00,weatherlink.com 1.10,2013-09-07 10:21:00,
2013-09-07 06:36:00,62.6,57.0,30.02,SSW,193,1.0,3.0,82,0.00,,,0.00,weatherlink.com 1.10,2013-09-07 10:36:00,
2013-09-07 06:51:00,62.6,57.0,30.02,SE,134,2.0,4.0,82,0.00,,,0.00,weatherlink.com 1.10,2013-09-07 10:51:00,
2013-09-07 07:06:00,62.8,57.0,30.02,SSE,165,1.0,5.0,82,0.00,,,0.00,weatherlink.com 1.10,2013-09-07 11:06:00,
2013-09-07 07:21:00,62.9,57.0,30.02,SW,214,3.0,5.0,82,0.00,,,0.00,weatherlink.com 1.10,2013-09-07 11:21:00,
2013-09-07 07:36:00,62.9,58.0,30.02,SSE,152,4.0,5.0,83,0.00,,,0.00,weatherlink.com 1.10,2013-09-07 11:36:00,
2013-09-07 07:51:00,63.5,58.0,30.02,SSE,167,2.0,7.0,82,0.00,,,0.00,weatherlink.com 1.10,2013-09-07 11:51:00,
2013-09-07 08:06:00,63.9,59.0,30.02,SSW,203,4.0,7.0,83,0.00,,,0.00,weatherlink.com 1.10,2013-09-07 12:06:00,
2013-09-07 08:21:00,64.5,59.0,30.02,SSW,201,3.0,8.0,83,0.00,,,0.00,weatherlink.com 1.10,2013-09-07 12:21:00,
2013-09-07 08:36:00,65.4,60.0,30.02,SSE,167,4.0,6.0,82,0.00,,,0.00,weatherlink.com 1.10,2013-09-07 12:36:00,
2013-09-07 08:51:00,66.2,61.0,30.02,South,176,4.0,8.0,82,0.00,,,0.00,weatherlink.com 1.10,2013-09-07 12:51:00,
2013-09-07 09:06:00,67.1,61.0,30.01,SSE,164,7.0,7.0,82,0.00,,,0.00,weatherlink.com 1.10,2013-09-07 13:06:00,
2013-09-07 09:22:00,68.3,62.0,30.00,SSW,203,4.0,7.0,81,0.00,,,0.00,weatherlink.com 1.10,2013-09-07 13:22:00,
2013-09-07 09:37:00,69.3,63.0,30.00,South,190,4.0,6.0,81,0.00,,,0.00,weatherlink.com 1.10,2013-09-07 13:37:00,
2013-09-07 09:52:00,70.1,64.0,30.00,SW,217,2.0,5.0,80,0.00,,,0.00,weatherlink.com 1.10,2013-09-07 13:52:00,
2013-09-07 10:07:00,71.3,65.0,30.00,South,191,5.0,9.0,79,0.00,,,0.00,weatherlink.com 1.10,2013-09-07 14:07:00,
2013-09-07 10:22:00,73.0,65.0,30.00,WSW,240,6.0,9.0,77,0.00,,,0.00,weatherlink.com 1.10,2013-09-07 14:22:00,
2013-09-07 10:37:00,74.8,66.0,30.00,SSW,207,4.0,10.0,75,0.00,,,0.00,weatherlink.com 1.10,2013-09-07 14:37:00,
2013-09-07 10:53:00,76.2,67.0,29.99,SW,233,6.0,11.0,72,0.00,,,0.00,weatherlink.com 1.10,2013-09-07 14:53:00,
2013-09-07 11:07:00,76.5,67.0,29.99,SW,214,7.0,11.0,72,0.00,,,0.00,weatherlink.com 1.10,2013-09-07 15:07:00,
2013-09-07 11:22:00,76.9,67.0,29.99,SW,229,3.0,10.0,72,0.00,,,0.00,weatherlink.com 1.10,2013-09-07 15:22:00,
2013-09-07 11:37:00,78.5,67.0,29.98,SSE,152,3.0,9.0,67,0.00,,,0.00,weatherlink.com 1.10,2013-09-07 15:37:00,
2013-09-07 11:52:00,79.4,67.0,29.98,WSW,250,8.0,13.0,67,0.00,,,0.00,weatherlink.com 1.10,2013-09-07 15:52:00,
2013-09-07 12:07:00,80.0,67.0,29.97,SW,221,5.0,13.0,64,0.00,,,0.00,weatherlink.com 1.10,2013-09-07 16:07:00,
2013-09-07 12:22:00,80.4,67.0,29.97,SSW,211,4.0,13.0,64,0.00,,,0.00,weatherlink.com 1.10,2013-09-07 16:22:00,
2013-09-07 12:37:00,81.7,67.0,29.96,SW,218,8.0,12.0,62,0.00,,,0.00,weatherlink.com 1.10,2013-09-07 16:37:00,
2013-09-07 12:52:00,81.6,66.0,29.96,SW,219,8.0,13.0,60,0.00,,,0.00,weatherlink.com 1.10,2013-09-07 16:52:00,
2013-09-07 13:07:00,82.0,66.0,29.96,SW,231,10.0,13.0,58,0.00,,,0.00,weatherlink.com 1.10,2013-09-07 17:07:00,
2013-09-07 13:22:00,81.4,66.0,29.95,SW,228,7.0,9.0,59,0.00,,,0.00,weatherlink.com 1.10,2013-09-07 17:22:00,
2013-09-07 13:37:00,82.8,66.0,29.95,SSW,201,8.0,14.0,57,0.00,,,0.00,weatherlink.com 1.10,2013-09-07 17:37:00,
2013-09-07 13:52:00,83.9,66.0,29.94,SW,218,13.0,16.0,55,0.00,,,0.00,weatherlink.com 1.10,2013-09-07 17:52:00,
2013-09-07 14:08:00,83.7,66.0,29.93,SW,221,9.0,12.0,55,0.00,,,0.00,weatherlink.com 1.10,2013-09-07 18:08:00,
2013-09-07 14:23:00,83.1,66.0,29.92,SW,222,6.0,8.0,57,0.00,,,0.00,weatherlink.com 1.10,2013-09-07 18:23:00,
2013-09-07 14:38:00,82.8,65.0,29.92,SW,235,5.0,7.0,56,0.00,,,0.00,weatherlink.com 1.10,2013-09-07 18:38:00,
2013-09-07 14:53:00,83.0,66.0,29.91,SSW,201,5.0,8.0,56,0.00,,,0.00,weatherlink.com 1.10,2013-09-07 18:53:00,
2013-09-07 15:08:00,84.7,66.0,29.91,SE,129,6.0,9.0,53,0.00,,,0.00,weatherlink.com 1.10,2013-09-07 19:08:00,
2013-09-07 15:23:00,84.6,65.0,29.91,SW,214,5.0,9.0,52,0.00,,,0.00,weatherlink.com 1.10,2013-09-07 19:23:00,
2013-09-07 15:38:00,85.1,63.0,29.90,WSW,243,5.0,8.0,48,0.00,,,0.00,weatherlink.com 1.10,2013-09-07 19:38:00,
2013-09-07 15:53:00,86.0,63.0,29.90,WNW,283,12.0,12.0,47,0.00,,,0.00,weatherlink.com 1.10,2013-09-07 19:53:00,
2013-09-07 16:08:00,86.1,63.0,29.90,WSW,257,5.0,10.0,46,0.00,,,0.00,weatherlink.com 1.10,2013-09-07 20:08:00,
2013-09-07 16:23:00,86.1,63.0,29.90,WSW,249,7.0,12.0,46,0.00,,,0.00,weatherlink.com 1.10,2013-09-07 20:23:00,
2013-09-07 16:38:00,86.3,64.0,29.90,SW,233,3.0,11.0,48,0.00,,,0.00,weatherlink.com 1.10,2013-09-07 20:38:00,
2013-09-07 16:53:00,85.2,63.0,29.91,West,262,5.0,12.0,47,0.00,,,0.00,weatherlink.com 1.10,2013-09-07 20:53:00,
2013-09-07 17:08:00,84.3,63.0,29.91,WSW,253,3.0,9.0,49,0.00,,,0.00,weatherlink.com 1.10,2013-09-07 21:08:00,
2013-09-07 17:23:00,83.9,64.0,29.91,WSW,243,4.0,6.0,51,0.00,,,0.00,weatherlink.com 1.10,2013-09-07 21:23:00,
2013-09-07 17:38:00,83.6,65.0,29.90,West,259,2.0,5.0,53,0.00,,,0.00,weatherlink.com 1.10,2013-09-07 21:38:00,
2013-09-07 17:53:00,83.1,65.0,29.89,SW,221,2.0,3.0,55,0.00,,,0.00,weatherlink.com 1.10,2013-09-07 21:53:00,
2013-09-07 18:08:00,82.4,67.0,29.90,SSW,213,0.0,2.0,60,0.00,,,0.00,weatherlink.com 1.10,2013-09-07 22:08:00,
2013-09-07 18:23:00,81.5,66.0,29.89,SW,218,1.0,1.0,59,0.00,,,0.00,weatherlink.com 1.10,2013-09-07 22:23:00,
2013-09-07 18:38:00,81.0,67.0,29.89,SSW,210,1.0,2.0,62,0.00,,,0.00,weatherlink.com 1.10,2013-09-07 22:38:00,
2013-09-07 18:53:00,80.1,66.0,29.88,South,179,2.0,3.0,62,0.00,,,0.00,weatherlink.com 1.10,2013-09-07 22:53:00,
2013-09-07 19:08:00,79.4,67.0,29.88,SSE,167,1.0,2.0,65,0.00,,,0.00,weatherlink.com 1.10,2013-09-07 23:08:00,
2013-09-07 19:23:00,77.5,68.0,29.88,SE,129,0.0,0.0,73,0.00,,,0.00,weatherlink.com 1.10,2013-09-07 23:23:00,
2013-09-07 19:38:00,76.3,68.0,29.88,SSE,160,2.0,2.0,75,0.00,,,0.00,weatherlink.com 1.10,2013-09-07 23:38:00,
2013-09-07 19:53:00,76.7,67.0,29.88,SE,137,1.0,4.0,73,0.00,,,0.00,weatherlink.com 1.10,2013-09-07 23:53:00,
2013-09-07 20:08:00,75.9,67.0,29.89,NW,312,0.0,1.0,75,0.00,,,0.00,weatherlink.com 1.10,2013-09-08 00:08:00,
2013-09-07 20:23:00,75.7,68.0,29.89,NW,313,1.0,1.0,77,0.00,,,0.00,weatherlink.com 1.10,2013-09-08 00:23:00,
2013-09-07 20:38:00,74.4,67.0,29.90,NW,315,3.0,3.0,77,0.00,,,0.00,weatherlink.com 1.10,2013-09-08 00:38:00,
2013-09-07 20:53:00,74.9,67.0,29.90,NW,312,0.0,0.0,76,0.00,,,0.00,weatherlink.com 1.10,2013-09-08 00:53:00,
2013-09-07 21:08:00,74.7,66.0,29.90,NW,312,0.0,0.0,74,0.00,,,0.00,weatherlink.com 1.10,2013-09-08 01:08:00,
2013-09-07 21:23:00,74.4,68.0,29.91,NW,311,0.0,0.0,79,0.00,,,0.00,weatherlink.com 1.10,2013-09-08 01:23:00,
2013-09-07 21:38:00,73.5,67.0,29.90,NW,312,0.0,1.0,79,0.00,,,0.00,weatherlink.com 1.10,2013-09-08 01:38:00,
2013-09-07 21:53:00,72.7,67.0,29.90,NW,311,0.0,0.0,81,0.00,,,0.00,weatherlink.com 1.10,2013-09-08 01:53:00,
2013-09-07 22:08:00,72.2,66.0,29.91,NW,311,0.0,0.0,82,0.00,,,0.00,weatherlink.com 1.10,2013-09-08 02:08:00,
2013-09-07 22:23:00,72.0,67.0,29.91,NW,312,0.0,0.0,83,0.00,,,0.00,weatherlink.com 1.10,2013-09-08 02:23:00,
2013-09-07 22:38:00,71.7,67.0,29.91,NW,312,1.0,1.0,84,0.00,,,0.00,weatherlink.com 1.10,2013-09-08 02:38:00,
2013-09-07 22:53:00,72.0,68.0,29.91,ESE,117,1.0,2.0,86,0.00,,,0.00,weatherlink.com 1.10,2013-09-08 02:53:00,
2013-09-07 23:08:00,72.0,67.0,29.91,ESE,114,0.0,1.0,84,0.00,,,0.00,weatherlink.com 1.10,2013-09-08 03:08:00,
2013-09-07 23:23:00,71.8,66.0,29.91,SSE,159,1.0,4.0,83,0.00,,,0.00,weatherlink.com 1.10,2013-09-08 03:23:00,
2013-09-07 23:38:00,71.6,67.0,29.91,SE,127,0.0,1.0,85,0.00,,,0.00,weatherlink.com 1.10,2013-09-08 03:38:00,
2013-09-07 23:53:00,71.2,67.0,29.91,SE,127,0.0,0.0,85,0.00,,,0.00,weatherlink.com 1.10,2013-09-08 03:53:00,